Capt. Harry — WDC3690 — position and weather

sailwx.info

Track history (hours):
 
Tides and Currents Weather Stations Pressure Air Temp Water Temp Dewpoint Dewpoint Depression Visibility Wind Speed Wind Dir Waves Ship Positions

Capt. Harry

Owner: Wilmington Tug, Inc., New Castle, DE. More information available from US FCC via Universal Licensing System and Coast Guard Vessel Documentation Center.

Last reported at 2014-Nov-23 18:33 UTC. Time now 2014-Dec-18 23:49 UTC.
Position N 39°48' W 075°26'.
Warning: this ship's position is 25 days out of date.

Type: Tug. MMSI: 367012530.

Date/timePositionNaut miles runAvg speedWind from/ knotsBaromVisibWave heightAir tempDewpointWater temp
2014-Nov-23 18:33N 39°48' W 075°26'0 0.0
2014-Nov-23 17:05N 39°48' W 075°26'3 0.1
2014-Nov-22 12:11N 39°49' W 075°23'0 0.0
2014-Nov-20 22:19N 39°50' W 075°23'15 0.3
2014-Nov-18 23:34N 39°38' W 075°36'3 2.9
2014-Nov-18 22:33N 39°35' W 075°36'4 3.7
2014-Nov-18 21:33N 39°39' W 075°34'5 5.0
2014-Nov-18 20:33N 39°43' W 075°31'0 0.0
2014-Nov-18 19:33N 39°43' W 075°31'0 0.0
2014-Nov-18 18:33N 39°43' W 075°31'0 0.0
2014-Nov-18 17:33N 39°43' W 075°31'0 0.0
2014-Nov-18 16:33N 39°43' W 075°31'0 0.3
2014-Nov-18 15:33N 39°43' W 075°31'1 0.8
2014-Nov-18 14:33N 39°43' W 075°31'1 0.5
2014-Nov-18 13:27N 39°43' W 075°31'0 0.0
2014-Nov-18 11:19N 39°43' W 075°31'0 0.0
2014-Nov-18 10:33N 39°43' W 075°31'0 0.1
2014-Nov-18 08:33N 39°43' W 075°31'0 0.1
2014-Nov-18 07:31N 39°43' W 075°31'0 0.0
2014-Nov-18 06:31N 39°43' W 075°31'0 0.0
2014-Nov-18 05:33N 39°43' W 075°31'0 0.0
2014-Nov-18 04:33N 39°43' W 075°31'1 0.7
2014-Nov-18 02:33N 39°42' W 075°31'1 1.4
2014-Nov-18 01:30N 39°43' W 075°31'0 0.2
2014-Nov-18 00:33N 39°43' W 075°31'0 0.0
2014-Nov-17 23:33N 39°43' W 075°31'0 0.0
2014-Nov-17 22:33N 39°43' W 075°31'0 0.0
2014-Nov-17 21:33N 39°43' W 075°31'0 0.0
2014-Nov-17 20:33N 39°43' W 075°31'0 0.0
2014-Nov-17 19:26N 39°43' W 075°31'1 0.7
2014-Nov-17 18:33N 39°43' W 075°30'8 0.7
2014-Nov-17 08:05N 39°49' W 075°24'10 4.0
2014-Nov-17 05:27N 39°53' W 075°11'0 0.0
2014-Nov-17 04:05N 39°53' W 075°11'  
Track history (hours):
 
Tides and Currents Weather Stations Pressure Air Temp Water Temp Dewpoint Dewpoint Depression Visibility Wind Speed Wind Dir Waves Ship Positions

Capt. Harry

Owner: Wilmington Tug, Inc., New Castle, DE. More information available from US FCC via Universal Licensing System and Coast Guard Vessel Documentation Center.

Last reported at 2014-Nov-23 18:33 UTC. Time now 2014-Dec-18 23:49 UTC.
Position N 39°48' W 075°26'.
Warning: this ship's position is 25 days out of date.

Type: Tug. MMSI: 367012530.

Date/timePositionNaut miles runAvg speedWind from/ knotsBaromVisibWave heightAir tempDewpointWater temp
2014-Nov-23 18:33N 39°48' W 075°26'0 0.0
2014-Nov-23 17:05N 39°48' W 075°26'3 0.1
2014-Nov-22 12:11N 39°49' W 075°23'0 0.0
2014-Nov-20 22:19N 39°50' W 075°23'15 0.3
2014-Nov-18 23:34N 39°38' W 075°36'3 2.9
2014-Nov-18 22:33N 39°35' W 075°36'4 3.7
2014-Nov-18 21:33N 39°39' W 075°34'5 5.0
2014-Nov-18 20:33N 39°43' W 075°31'0 0.0
2014-Nov-18 19:33N 39°43' W 075°31'0 0.0
2014-Nov-18 18:33N 39°43' W 075°31'0 0.0
2014-Nov-18 17:33N 39°43' W 075°31'0 0.0
2014-Nov-18 16:33N 39°43' W 075°31'0 0.3
2014-Nov-18 15:33N 39°43' W 075°31'1 0.8
2014-Nov-18 14:33N 39°43' W 075°31'1 0.5
2014-Nov-18 13:27N 39°43' W 075°31'0 0.0
2014-Nov-18 11:19N 39°43' W 075°31'0 0.0
2014-Nov-18 10:33N 39°43' W 075°31'0 0.1
2014-Nov-18 08:33N 39°43' W 075°31'0 0.1
2014-Nov-18 07:31N 39°43' W 075°31'0 0.0
2014-Nov-18 06:31N 39°43' W 075°31'0 0.0
2014-Nov-18 05:33N 39°43' W 075°31'0 0.0
2014-Nov-18 04:33N 39°43' W 075°31'1 0.7
2014-Nov-18 02:33N 39°42' W 075°31'1 1.4
2014-Nov-18 01:30N 39°43' W 075°31'0 0.2
2014-Nov-18 00:33N 39°43' W 075°31'0 0.0
2014-Nov-17 23:33N 39°43' W 075°31'0 0.0
2014-Nov-17 22:33N 39°43' W 075°31'0 0.0
2014-Nov-17 21:33N 39°43' W 075°31'0 0.0
2014-Nov-17 20:33N 39°43' W 075°31'0 0.0
2014-Nov-17 19:26N 39°43' W 075°31'1 0.7
2014-Nov-17 18:33N 39°43' W 075°30'8 0.7
2014-Nov-17 08:05N 39°49' W 075°24'10 4.0
2014-Nov-17 05:27N 39°53' W 075°11'0 0.0
2014-Nov-17 04:05N 39°53' W 075°11'  

Dump ship's entire track history